| time (UTC) | temp C | wind direction | speed KPH | gust KPH | rain 1hr cm | rain 24hr cm | rain mn cm | humidity % | barometer mb |
| 20260510000404 | 23 | 199 | 3.2 | 3.2 | 0.00 | 0.00 | 0.00 | 62 | 1061.6 |
| 20260509235859 | 24 | 200 | 3.2 | 4.8 | 0.00 | 0.00 | 0.00 | 61 | 1061.4 |
| 20260509235356 | 24 | 172 | 3.2 | 4.8 | 0.00 | 0.00 | 0.00 | 60 | 1061.5 |
| 20260509234852 | 24 | 190 | 3.2 | 4.8 | 0.00 | 0.00 | 0.00 | 58 | 1061.6 |
| 20260509234350 | 24 | 182 | 1.6 | 1.6 | 0.00 | 0.00 | 0.00 | 55 | 1061.3 |
| 20260509233848 | 25 | 158 | 1.6 | 1.6 | 0.00 | 0.00 | 0.00 | 54 | 1061.4 |
| 20260509233345 | 25 | 179 | 1.6 | 1.6 | 0.00 | 0.00 | 0.00 | 55 | 1061.2 |
| 20260509232840 | 24 | 177 | 0.0 | 1.6 | 0.00 | 0.00 | 0.00 | 56 | 1061.4 |
| 20260509232339 | 23 | 141 | 4.8 | 4.8 | 0.00 | 0.00 | 0.00 | 55 | 1061.4 |
| 20260509231834 | 23 | 131 | 3.2 | 4.8 | 0.00 | 0.00 | 0.00 | 56 | 1061.3 |
| 20260509231331 | 23 | 107 | 3.2 | 3.2 | 0.00 | 0.00 | 0.00 | 55 | 1061.2 |
| 20260509230829 | 23 | 89 | 3.2 | 4.8 | 0.00 | 0.00 | 0.00 | 53 | 1061.3 |
| 20260509230326 | 23 | 136 | 4.8 | 4.8 | 0.00 | 0.00 | 0.00 | 54 | 1061.4 |
| 20260509225821 | 23 | 94 | 3.2 | 3.2 | 0.00 | 0.00 | 0.00 | 54 | 1061.3 |
| 20260509225318 | 23 | 69 | 3.2 | 3.2 | 0.00 | 0.00 | 0.00 | 55 | 1061.3 |
| 20260509224814 | 24 | 63 | 3.2 | 6.4 | 0.00 | 0.00 | 0.00 | 55 | 1061.4 |
| 20260509224310 | 25 | 188 | 3.2 | 3.2 | 0.00 | 0.00 | 0.00 | 54 | 1061.2 |
| 20260509223807 | 25 | 127 | 1.6 | 1.6 | 0.00 | 0.00 | 0.00 | 56 | 1061.4 |
| 20260509223304 | 25 | 147 | 0.0 | 0.0 | 0.00 | 0.00 | 0.00 | 53 | 1061.3 |
| 20260509222801 | 26 | 151 | 4.8 | 3.2 | 0.00 | 0.00 | 0.00 | 48 | 1061.2 |
| 20260509222256 | 26 | 196 | 0.0 | 0.0 | 0.00 | 0.00 | 0.00 | 50 | 1061.2 |
| 20260509221753 | 27 | 178 | 1.6 | 1.6 | 0.00 | 0.00 | 0.00 | 47 | 1061.4 |
| 20260509221249 | 27 | 208 | 0.0 | 0.0 | 0.00 | 0.00 | 0.00 | 49 | 1061.2 |
| 20260509220745 | 27 | 184 | 0.0 | 0.0 | 0.00 | 0.00 | 0.00 | 48 | 1061.2 |
| 20260509220241 | 26 | 177 | 1.6 | 1.6 | 0.00 | 0.00 | 0.00 | 50 | 1061.1 |
| 20260509215736 | 26 | 203 | 3.2 | 3.2 | 0.00 | 0.00 | 0.00 | 50 | 1061.0 |
| 20260509215234 | 26 | 187 | 1.6 | 3.2 | 0.00 | 0.00 | 0.00 | 48 | 1061.3 |
| 20260509214731 | 26 | 143 | 1.6 | 3.2 | 0.00 | 0.00 | 0.00 | 49 | 1061.1 |
| 20260509214228 | 26 | 193 | 1.6 | 1.6 | 0.00 | 0.00 | 0.00 | 55 | 1061.3 |
| 20260509213725 | 25 | 207 | 3.2 | 3.2 | 0.00 | 0.00 | 0.00 | 54 | 1061.3 |
| 20260509213220 | 24 | 66 | 4.8 | 4.8 | 0.00 | 0.00 | 0.00 | 54 | 1061.2 |
| 20260509212718 | 23 | 34 | 3.2 | 4.8 | 0.00 | 0.00 | 0.00 | 56 | 1061.4 |
| 20260509212215 | 24 | 45 | 3.2 | 6.4 | 0.00 | 0.00 | 0.00 | 56 | 1061.4 |
| 20260509211711 | 25 | 125 | 0.0 | 1.6 | 0.00 | 0.00 | 0.00 | 55 | 1061.3 |
| 20260509211208 | 26 | 133 | 3.2 | 4.8 | 0.00 | 0.00 | 0.00 | 52 | 1061.3 |
| 20260509210704 | 25 | 189 | 0.0 | 0.0 | 0.00 | 0.00 | 0.00 | 53 | 1061.4 |
| 20260509210202 | 25 | 200 | 0.0 | 1.6 | 0.00 | 0.00 | 0.00 | 57 | 1061.3 |
| 20260509205701 | 26 | 100 | 3.2 | 6.4 | 0.00 | 0.00 | 0.00 | 51 | 1061.4 |
| 20260509205201 | 26 | 183 | 1.6 | 1.6 | 0.00 | 0.00 | 0.00 | 50 | 1061.5 |
| 20260509204657 | 26 | 178 | 1.6 | 3.2 | 0.00 | 0.00 | 0.00 | 52 | 1061.5 |
| 20260509204153 | 26 | 170 | 1.6 | 1.6 | 0.00 | 0.00 | 0.00 | 50 | 1061.6 |
| 20260509203649 | 26 | 59 | 6.4 | 6.4 | 0.00 | 0.00 | 0.00 | 48 | 1061.6 |
| 20260509203148 | 26 | 214 | 4.8 | 4.8 | 0.00 | 0.00 | 0.00 | 52 | 1061.5 |
| 20260509202643 | 25 | 169 | 1.6 | 1.6 | 0.00 | 0.00 | 0.00 | 56 | 1061.8 |
| 20260509202138 | 25 | 180 | 0.0 | 0.0 | 0.00 | 0.00 | 0.00 | 56 | 1061.8 |
| 20260509201628 | 25 | 174 | 1.6 | 1.6 | 0.00 | 0.00 | 0.00 | 54 | 1061.8 |
| 20260509201126 | 26 | 213 | 1.6 | 1.6 | 0.00 | 0.00 | 0.00 | 51 | 1062.2 |
| 20260509200621 | 25 | 218 | 1.6 | 1.6 | 0.00 | 0.00 | 0.00 | 52 | 1062.1 |
| 20260509200117 | 25 | 141 | 3.2 | 3.2 | 0.00 | 0.00 | 0.00 | 52 | 1062.1 |
| 20260509195612 | 24 | 160 | 0.0 | 0.0 | 0.00 | 0.00 | 0.00 | 55 | 1062.1 |
| 20260509195107 | 24 | 167 | 0.0 | 0.0 | 0.00 | 0.00 | 0.00 | 53 | 1062.2 |
| 20260509194606 | 25 | 171 | 0.0 | 0.0 | 0.00 | 0.00 | 0.00 | 53 | 1062.1 |
| 20260509194105 | 26 | 212 | 0.0 | 0.0 | 0.00 | 0.00 | 0.00 | 51 | 1062.1 |
| 20260509193600 | 26 | 185 | 0.0 | 1.6 | 0.00 | 0.00 | 0.00 | 52 | 1062.3 |
| 20260509193056 | 26 | 172 | 0.0 | 0.0 | 0.00 | 0.00 | 0.00 | 53 | 1062.3 |
| 20260509192553 | 26 | 209 | 1.6 | 1.6 | 0.00 | 0.00 | 0.00 | 50 | 1062.2 |
| 20260509192049 | 26 | 94 | 1.6 | 1.6 | 0.00 | 0.00 | 0.00 | 52 | 1062.5 |
| 20260509191548 | 26 | 211 | 0.0 | 0.0 | 0.00 | 0.00 | 0.00 | 49 | 1062.6 |
| 20260509191044 | 25 | 199 | 0.0 | 1.6 | 0.00 | 0.00 | 0.00 | 52 | 1062.3 |
| 20260509190541 | 24 | 123 | 1.6 | 1.6 | 0.00 | 0.00 | 0.00 | 54 | 1062.3 |
| 20260509190040 | 24 | 179 | 1.6 | 3.2 | 0.00 | 0.00 | 0.00 | 56 | 1062.3 |
| 20260509185537 | 25 | 186 | 0.0 | 0.0 | 0.00 | 0.00 | 0.00 | 53 | 1062.4 |
| 20260509185033 | 25 | 112 | 3.2 | 3.2 | 0.00 | 0.00 | 0.00 | 53 | 1062.3 |
| 20260509184531 | 24 | 217 | 3.2 | 3.2 | 0.00 | 0.00 | 0.00 | 57 | 1062.3 |
| 20260509184027 | 24 | 213 | 3.2 | 3.2 | 0.00 | 0.00 | 0.00 | 60 | 1062.5 |
| 20260509183522 | 24 | 235 | 3.2 | 3.2 | 0.00 | 0.00 | 0.00 | 55 | 1062.5 |
| 20260509183019 | 25 | 255 | 4.8 | 6.4 | 0.00 | 0.00 | 0.00 | 58 | 1062.4 |
| 20260509182515 | 24 | 223 | 3.2 | 3.2 | 0.00 | 0.00 | 0.00 | 55 | 1062.6 |
| 20260509182012 | 23 | 203 | 1.6 | 1.6 | 0.00 | 0.00 | 0.00 | 61 | 1062.4 |
| 20260509181510 | 23 | 97 | 4.8 | 4.8 | 0.00 | 0.00 | 0.00 | 59 | 1062.6 |
| 20260509181008 | 23 | 120 | 3.2 | 4.8 | 0.00 | 0.00 | 0.00 | 61 | 1062.7 |
| 20260509180503 | 24 | 73 | 4.8 | 4.8 | 0.00 | 0.00 | 0.00 | 56 | 1062.7 |
| 20260509180001 | 23 | 208 | 3.2 | 3.2 | 0.00 | 0.00 | 0.00 | 61 | 1062.7 |
| 20260509175456 | 23 | 306 | 3.2 | 3.2 | 0.00 | 0.00 | 0.00 | 60 | 1062.8 |
| 20260509174953 | 23 | 200 | 3.2 | 4.8 | 0.00 | 0.00 | 0.00 | 60 | 1062.7 |
| 20260509174449 | 23 | 140 | 0.0 | 1.6 | 0.00 | 0.00 | 0.00 | 64 | 1062.8 |
| 20260509173944 | 23 | 196 | 1.6 | 1.6 | 0.00 | 0.00 | 0.00 | 60 | 1063.0 |
| 20260509173444 | 23 | 163 | 1.6 | 1.6 | 0.00 | 0.00 | 0.00 | 66 | 1062.8 |
| 20260509172941 | 23 | 88 | 0.0 | 0.0 | 0.00 | 0.00 | 0.00 | 62 | 1062.8 |
| 20260509172438 | 23 | 248 | 4.8 | 4.8 | 0.00 | 0.00 | 0.00 | 61 | 1062.8 |
| 20260509171934 | 23 | 307 | 3.2 | 3.2 | 0.00 | 0.00 | 0.00 | 61 | 1062.9 |
| 20260509171430 | 23 | 244 | 3.2 | 1.6 | 0.00 | 0.00 | 0.00 | 63 | 1062.9 |
| 20260509170927 | 23 | 200 | 1.6 | 1.6 | 0.00 | 0.00 | 0.00 | 67 | 1062.9 |
| 20260509170422 | 23 | 211 | 1.6 | 1.6 | 0.00 | 0.00 | 0.00 | 64 | 1063.0 |
| 20260509165919 | 22 | 302 | 3.2 | 3.2 | 0.00 | 0.00 | 0.00 | 65 | 1062.8 |
| 20260509165412 | 23 | 19 | 4.8 | 4.8 | 0.00 | 0.00 | 0.00 | 63 | 1062.8 |
| 20260509164908 | 22 | 232 | 1.6 | 3.2 | 0.00 | 0.00 | 0.00 | 66 | 1062.8 |
| 20260509164405 | 22 | 207 | 3.2 | 1.6 | 0.00 | 0.00 | 0.00 | 69 | 1062.7 |
| 20260509163901 | 22 | 198 | 1.6 | 1.6 | 0.00 | 0.00 | 0.00 | 69 | 1062.6 |
| 20260509163358 | 22 | 181 | 1.6 | 1.6 | 0.00 | 0.00 | 0.00 | 69 | 1062.8 |
| 20260509162857 | 22 | 204 | 6.4 | 6.4 | 0.00 | 0.00 | 0.00 | 69 | 1062.8 |
| 20260509162355 | 22 | 320 | 4.8 | 6.4 | 0.00 | 0.00 | 0.00 | 69 | 1062.8 |
| 20260509161851 | 21 | 176 | 3.2 | 3.2 | 0.00 | 0.00 | 0.00 | 70 | 1062.8 |
| 20260509161348 | 21 | 229 | 3.2 | 3.2 | 0.00 | 0.00 | 0.00 | 69 | 1062.6 |
| 20260509160844 | 21 | 319 | 3.2 | 6.4 | 0.00 | 0.00 | 0.00 | 70 | 1062.8 |
| 20260509160340 | 21 | 215 | 1.6 | 3.2 | 0.00 | 0.00 | 0.00 | 71 | 1062.9 |
| 20260509155835 | 22 | 169 | 3.2 | 3.2 | 0.00 | 0.00 | 0.00 | 70 | 1062.5 |
| 20260509155332 | 22 | 284 | 4.8 | 4.8 | 0.00 | 0.00 | 0.00 | 70 | 1062.7 |
| 20260509154828 | 22 | 206 | 0.0 | 0.0 | 0.00 | 0.00 | 0.00 | 71 | 1062.7 |
| 20260509154324 | 22 | 200 | 1.6 | 1.6 | 0.00 | 0.00 | 0.00 | 72 | 1062.6 |
| 20260509153821 | 22 | 67 | 4.8 | 4.8 | 0.00 | 0.00 | 0.00 | 70 | 1062.6 |
| 20260509153318 | 22 | 39 | 3.2 | 3.2 | 0.00 | 0.00 | 0.00 | 69 | 1062.6 |
| 20260509152815 | 22 | 175 | 3.2 | 3.2 | 0.00 | 0.00 | 0.00 | 70 | 1062.7 |
| 20260509152311 | 22 | 230 | 3.2 | 3.2 | 0.00 | 0.00 | 0.00 | 70 | 1062.7 |
| 20260509151809 | 21 | 127 | 1.6 | 1.6 | 0.00 | 0.00 | 0.00 | 71 | 1062.7 |
| 20260509151304 | 21 | 236 | 3.2 | 3.2 | 0.00 | 0.00 | 0.00 | 69 | 1062.7 |
| 20260509150803 | 21 | 247 | 3.2 | 3.2 | 0.00 | 0.00 | 0.00 | 70 | 1062.5 |
| 20260509150301 | 21 | 210 | 1.6 | 1.6 | 0.00 | 0.00 | 0.00 | 74 | 1062.7 |
| 20260509145757 | 21 | 196 | 1.6 | 1.6 | 0.00 | 0.00 | 0.00 | 70 | 1062.5 |
| 20260509145257 | 21 | 75 | 3.2 | 3.2 | 0.00 | 0.00 | 0.00 | 72 | 1062.6 |
| 20260509144754 | 21 | 35 | 1.6 | 1.6 | 0.00 | 0.00 | 0.00 | 72 | 1062.7 |
| 20260509144251 | 20 | 226 | 1.6 | 1.6 | 0.00 | 0.00 | 0.00 | 73 | 1062.7 |
| 20260509143748 | 20 | 231 | 3.2 | 1.6 | 0.00 | 0.00 | 0.00 | 74 | 1062.8 |
| 20260509143246 | 20 | 228 | 3.2 | 3.2 | 0.00 | 0.00 | 0.00 | 74 | 1062.8 |
| 20260509142741 | 20 | 233 | 3.2 | 3.2 | 0.00 | 0.00 | 0.00 | 76 | 1062.8 |
| 20260509142238 | 20 | 234 | 3.2 | 3.2 | 0.00 | 0.00 | 0.00 | 76 | 1062.9 |
| 20260509141733 | 20 | 225 | 4.8 | 4.8 | 0.00 | 0.00 | 0.00 | 75 | 1062.7 |
| 20260509141231 | 20 | 233 | 3.2 | 3.2 | 0.00 | 0.00 | 0.00 | 76 | 1062.8 |
| 20260509140727 | 19 | 266 | 8.0 | 9.7 | 0.00 | 0.00 | 0.00 | 76 | 1062.8 |
| 20260509140225 | 19 | 262 | 8.0 | 9.7 | 0.00 | 0.00 | 0.00 | 76 | 1062.8 |
| 20260509135722 | 19 | 274 | 6.4 | 6.4 | 0.00 | 0.00 | 0.00 | 77 | 1062.8 |
| 20260509135220 | 19 | 228 | 8.0 | 6.4 | 0.00 | 0.00 | 0.00 | 76 | 1062.9 |
| 20260509134716 | 19 | 252 | 9.7 | 9.7 | 0.00 | 0.00 | 0.00 | 76 | 1062.9 |
| 20260509134214 | 18 | 221 | 8.0 | 9.7 | 0.00 | 0.00 | 0.00 | 77 | 1062.9 |
| 20260509133711 | 18 | 233 | 4.8 | 4.8 | 0.00 | 0.00 | 0.00 | 77 | 1062.8 |
| 20260509133208 | 18 | 235 | 8.0 | 9.7 | 0.00 | 0.00 | 0.00 | 77 | 1062.8 |
| 20260509132707 | 18 | 230 | 6.4 | 6.4 | 0.00 | 0.00 | 0.00 | 77 | 1062.8 |
| 20260509132205 | 18 | 203 | 6.4 | 4.8 | 0.00 | 0.00 | 0.00 | 77 | 1063.0 |
| 20260509131700 | 18 | 206 | 8.0 | 11.3 | 0.00 | 0.00 | 0.00 | 77 | 1062.8 |
| 20260509131157 | 18 | 222 | 6.4 | 6.4 | 0.00 | 0.00 | 0.00 | 77 | 1062.7 |
| 20260509130653 | 18 | 222 | 6.4 | 6.4 | 0.00 | 0.00 | 0.00 | 77 | 1062.5 |
| 20260509130149 | 17 | 214 | 9.7 | 11.3 | 0.00 | 0.00 | 0.00 | 78 | 1062.6 |
| 20260509125646 | 18 | 203 | 6.4 | 4.8 | 0.00 | 0.00 | 0.00 | 77 | 1062.6 |
| 20260509125143 | 18 | 207 | 9.7 | 11.3 | 0.00 | 0.00 | 0.00 | 77 | 1062.6 |
| 20260509124640 | 18 | 213 | 9.7 | 11.3 | 0.00 | 0.00 | 0.00 | 77 | 1062.5 |
| 20260509124137 | 18 | 208 | 9.7 | 12.9 | 0.00 | 0.00 | 0.00 | 76 | 1062.1 |
| 20260509123634 | 18 | 213 | 8.0 | 9.7 | 0.00 | 0.00 | 0.00 | 76 | 1062.3 |
| 20260509123131 | 18 | 221 | 9.7 | 11.3 | 0.00 | 0.00 | 0.00 | 76 | 1062.1 |
| 20260509122627 | 18 | 225 | 8.0 | 9.7 | 0.00 | 0.00 | 0.00 | 76 | 1062.1 |
| 20260509122124 | 18 | 211 | 6.4 | 6.4 | 0.00 | 0.00 | 0.00 | 76 | 1061.8 |
| 20260509121620 | 18 | 195 | 8.0 | 14.5 | 0.00 | 0.00 | 0.00 | 76 | 1062.0 |
| 20260509121119 | 18 | 219 | 9.7 | 11.3 | 0.00 | 0.00 | 0.00 | 76 | 1061.6 |
| 20260509120616 | 18 | 224 | 9.7 | 12.9 | 0.00 | 0.00 | 0.00 | 76 | 1062.0 |
| 20260509120114 | 18 | 217 | 12.9 | 14.5 | 0.00 | 0.00 | 0.00 | 77 | 1061.6 |
| 20260509115611 | 17 | 220 | 9.7 | 12.9 | 0.00 | 0.00 | 0.00 | 77 | 1061.6 |
| 20260509115109 | 17 | 199 | 11.3 | 14.5 | 0.00 | 0.00 | 0.00 | 78 | 1061.7 |
| 20260509114607 | 17 | 213 | 11.3 | 16.1 | 0.00 | 0.00 | 0.00 | 78 | 1061.7 |
| 20260509114106 | 17 | 214 | 8.0 | 9.7 | 0.00 | 0.00 | 0.00 | 78 | 1061.5 |
| 20260509113603 | 17 | 209 | 14.5 | 16.1 | 0.00 | 0.00 | 0.00 | 77 | 1061.5 |
| 20260509113101 | 17 | 205 | 12.9 | 14.5 | 0.00 | 0.00 | 0.00 | 78 | 1061.4 |
| 20260509112557 | 17 | 215 | 9.7 | 14.5 | 0.00 | 0.00 | 0.00 | 78 | 1061.2 |
| 20260509112054 | 17 | 214 | 14.5 | 17.7 | 0.00 | 0.00 | 0.00 | 78 | 1061.1 |
| 20260509111551 | 17 | 206 | 12.9 | 17.7 | 0.00 | 0.00 | 0.00 | 78 | 1061.0 |
| 20260509111048 | 17 | 203 | 12.9 | 16.1 | 0.00 | 0.00 | 0.00 | 77 | 1060.9 |
| 20260509110545 | 17 | 207 | 9.7 | 11.3 | 0.00 | 0.00 | 0.00 | 77 | 1060.9 |
| 20260509110042 | 17 | 216 | 12.9 | 16.1 | 0.00 | 0.00 | 0.00 | 78 | 1060.9 |
| 20260509105540 | 17 | 183 | 8.0 | 11.3 | 0.00 | 0.00 | 0.00 | 78 | 1060.8 |
| 20260509105038 | 17 | 199 | 11.3 | 17.7 | 0.00 | 0.00 | 0.00 | 78 | 1060.9 |
| 20260509104534 | 16 | 195 | 4.8 | 6.4 | 0.00 | 0.00 | 0.00 | 80 | 1060.8 |
| 20260509104031 | 16 | 180 | 6.4 | 9.7 | 0.00 | 0.00 | 0.00 | 80 | 1061.0 |
| 20260509103529 | 16 | 210 | 9.7 | 12.9 | 0.00 | 0.00 | 0.00 | 80 | 1060.7 |
| 20260509103027 | 17 | 196 | 11.3 | 14.5 | 0.00 | 0.00 | 0.00 | 79 | 1060.9 |
| 20260509102524 | 17 | 216 | 9.7 | 14.5 | 0.00 | 0.00 | 0.00 | 79 | 1060.7 |
| 20260509102021 | 17 | 215 | 12.9 | 14.5 | 0.00 | 0.00 | 0.00 | 78 | 1060.7 |
| 20260509101517 | 17 | 201 | 12.9 | 16.1 | 0.00 | 0.00 | 0.00 | 78 | 1060.7 |
| 20260509101014 | 17 | 217 | 9.7 | 11.3 | 0.00 | 0.00 | 0.00 | 78 | 1060.7 |
| 20260509100512 | 17 | 206 | 9.7 | 14.5 | 0.00 | 0.00 | 0.00 | 78 | 1060.6 |
| 20260509100009 | 17 | 215 | 11.3 | 12.9 | 0.00 | 0.00 | 0.00 | 78 | 1060.6 |
| 20260509095505 | 17 | 192 | 9.7 | 14.5 | 0.00 | 0.00 | 0.00 | 77 | 1060.7 |
| 20260509095002 | 17 | 190 | 6.4 | 9.7 | 0.00 | 0.00 | 0.00 | 77 | 1060.6 |
| 20260509094458 | 17 | 218 | 11.3 | 14.5 | 0.00 | 0.00 | 0.00 | 77 | 1060.6 |
| 20260509093956 | 17 | 220 | 9.7 | 14.5 | 0.00 | 0.00 | 0.00 | 77 | 1060.6 |
| 20260509093454 | 17 | 203 | 12.9 | 16.1 | 0.00 | 0.00 | 0.00 | 77 | 1060.8 |
| 20260509092951 | 17 | 212 | 9.7 | 14.5 | 0.00 | 0.00 | 0.00 | 78 | 1060.7 |
| 20260509092449 | 17 | 169 | 9.7 | 14.5 | 0.00 | 0.00 | 0.00 | 79 | 1060.6 |
| 20260509091948 | 17 | 189 | 9.7 | 14.5 | 0.00 | 0.00 | 0.00 | 80 | 1060.6 |
| 20260509091444 | 17 | 203 | 6.4 | 11.3 | 0.00 | 0.00 | 0.00 | 79 | 1060.6 |
| 20260509090941 | 17 | 211 | 9.7 | 14.5 | 0.00 | 0.00 | 0.00 | 79 | 1060.5 |
| 20260509090438 | 17 | 201 | 6.4 | 9.7 | 0.00 | 0.00 | 0.00 | 78 | 1060.6 |
| 20260509085936 | 17 | 209 | 8.0 | 12.9 | 0.00 | 0.00 | 0.00 | 78 | 1060.6 |
| 20260509085433 | 17 | 208 | 9.7 | 14.5 | 0.00 | 0.00 | 0.00 | 79 | 1060.7 |
| 20260509084929 | 17 | 183 | 9.7 | 14.5 | 0.00 | 0.00 | 0.00 | 80 | 1060.6 |
| 20260509084426 | 16 | 203 | 8.0 | 11.3 | 0.00 | 0.00 | 0.00 | 81 | 1060.4 |
| 20260509083924 | 16 | 206 | 9.7 | 16.1 | 0.00 | 0.00 | 0.00 | 81 | 1060.6 |
| 20260509083420 | 16 | 187 | 9.7 | 12.9 | 0.00 | 0.00 | 0.00 | 82 | 1060.8 |
| 20260509082917 | 16 | 188 | 6.4 | 6.4 | 0.00 | 0.00 | 0.00 | 82 | 1060.7 |
| 20260509082415 | 16 | 209 | 6.4 | 6.4 | 0.00 | 0.00 | 0.00 | 82 | 1060.7 |
| 20260509081911 | 16 | 205 | 8.0 | 11.3 | 0.00 | 0.00 | 0.00 | 83 | 1060.6 |
| 20260509081408 | 16 | 186 | 6.4 | 6.4 | 0.00 | 0.00 | 0.00 | 82 | 1060.9 |
| 20260509080906 | 16 | 192 | 4.8 | 6.4 | 0.00 | 0.00 | 0.00 | 82 | 1060.8 |
| 20260509080404 | 16 | 173 | 6.4 | 11.3 | 0.00 | 0.00 | 0.00 | 83 | 1060.8 |
| 20260509075902 | 16 | 191 | 4.8 | 6.4 | 0.00 | 0.00 | 0.00 | 83 | 1060.7 |
| 20260509075358 | 16 | 190 | 4.8 | 4.8 | 0.00 | 0.00 | 0.00 | 83 | 1060.7 |
| 20260509074856 | 16 | 186 | 4.8 | 4.8 | 0.00 | 0.00 | 0.00 | 82 | 1060.9 |
| 20260509074354 | 16 | 167 | 4.8 | 6.4 | 0.00 | 0.00 | 0.00 | 82 | 1061.0 |
| 20260509073849 | 16 | 186 | 4.8 | 4.8 | 0.00 | 0.00 | 0.00 | 81 | 1060.9 |
| 20260509073346 | 16 | 165 | 6.4 | 6.4 | 0.00 | 0.00 | 0.00 | 81 | 1060.9 |
| 20260509072843 | 16 | 162 | 6.4 | 6.4 | 0.00 | 0.00 | 0.00 | 81 | 1061.2 |
| 20260509072339 | 16 | 178 | 6.4 | 4.8 | 0.00 | 0.00 | 0.00 | 81 | 1061.1 |
| 20260509071836 | 16 | 187 | 4.8 | 4.8 | 0.00 | 0.00 | 0.00 | 80 | 1061.4 |
| 20260509071333 | 16 | 185 | 6.4 | 6.4 | 0.00 | 0.00 | 0.00 | 80 | 1061.4 |
| 20260509070830 | 16 | 167 | 6.4 | 6.4 | 0.00 | 0.00 | 0.00 | 80 | 1061.5 |
| 20260509070327 | 16 | 183 | 6.4 | 6.4 | 0.00 | 0.00 | 0.00 | 80 | 1061.6 |
| 20260509065823 | 16 | 175 | 4.8 | 4.8 | 0.00 | 0.00 | 0.00 | 79 | 1061.5 |
| 20260509065319 | 17 | 171 | 6.4 | 6.4 | 0.00 | 0.00 | 0.00 | 79 | 1061.6 |
| 20260509064815 | 17 | 171 | 6.4 | 6.4 | 0.00 | 0.00 | 0.00 | 78 | 1061.7 |
| 20260509064313 | 16 | 179 | 4.8 | 3.2 | 0.00 | 0.00 | 0.00 | 79 | 1062.0 |
| 20260509063810 | 16 | 182 | 8.0 | 9.7 | 0.00 | 0.00 | 0.00 | 80 | 1061.8 |
| 20260509063306 | 16 | 180 | 6.4 | 6.4 | 0.00 | 0.00 | 0.00 | 79 | 1062.2 |
| 20260509062804 | 16 | 175 | 6.4 | 6.4 | 0.00 | 0.00 | 0.00 | 79 | 1062.0 |
| 20260509062301 | 17 | 176 | 6.4 | 6.4 | 0.00 | 0.00 | 0.00 | 78 | 1061.7 |
| 20260509061758 | 17 | 173 | 6.4 | 6.4 | 0.00 | 0.00 | 0.00 | 78 | 1061.7 |
| 20260509061256 | 16 | 164 | 4.8 | 4.8 | 0.00 | 0.00 | 0.00 | 79 | 1062.0 |
| 20260509060753 | 16 | 176 | 6.4 | 6.4 | 0.00 | 0.00 | 0.00 | 79 | 1061.8 |
| 20260509060249 | 16 | 164 | 8.0 | 9.7 | 0.00 | 0.00 | 0.00 | 78 | 1061.8 |
| 20260509055745 | 17 | 173 | 8.0 | 9.7 | 0.00 | 0.00 | 0.00 | 78 | 1061.8 |
| 20260509055241 | 17 | 176 | 6.4 | 9.7 | 0.00 | 0.00 | 0.00 | 78 | 1061.7 |
| 20260509054738 | 17 | 170 | 6.4 | 6.4 | 0.00 | 0.00 | 0.00 | 76 | 1061.8 |
| 20260509054235 | 17 | 169 | 6.4 | 6.4 | 0.00 | 0.00 | 0.00 | 76 | 1062.0 |
| 20260509053733 | 17 | 162 | 6.4 | 6.4 | 0.00 | 0.00 | 0.00 | 75 | 1061.8 |
| 20260509053230 | 17 | 167 | 4.8 | 4.8 | 0.00 | 0.00 | 0.00 | 75 | 1062.4 |
| 20260509052728 | 17 | 174 | 4.8 | 4.8 | 0.00 | 0.00 | 0.00 | 76 | 1062.4 |
| 20260509052225 | 17 | 168 | 3.2 | 4.8 | 0.00 | 0.00 | 0.00 | 75 | 1062.5 |
| 20260509051723 | 17 | 146 | 4.8 | 4.8 | 0.00 | 0.00 | 0.00 | 75 | 1062.4 |
| 20260509051220 | 17 | 154 | 3.2 | 3.2 | 0.00 | 0.00 | 0.00 | 75 | 1062.6 |
| 20260509050717 | 17 | 173 | 3.2 | 4.8 | 0.00 | 0.00 | 0.00 | 75 | 1062.6 |
| 20260509050213 | 17 | 175 | 3.2 | 3.2 | 0.00 | 0.00 | 0.00 | 74 | 1062.6 |
| 20260509045711 | 17 | 178 | 3.2 | 3.2 | 0.00 | 0.00 | 0.00 | 74 | 1062.7 |
| 20260509045208 | 17 | 171 | 3.2 | 3.2 | 0.00 | 0.00 | 0.00 | 73 | 1062.8 |
| 20260509044705 | 17 | 176 | 3.2 | 3.2 | 0.00 | 0.00 | 0.00 | 73 | 1062.9 |
| 20260509044202 | 17 | 170 | 3.2 | 4.8 | 0.00 | 0.00 | 0.00 | 72 | 1063.2 |
| 20260509043658 | 17 | 160 | 1.6 | 1.6 | 0.00 | 0.00 | 0.00 | 71 | 1063.4 |
| 20260509043154 | 17 | 49 | 4.8 | 4.8 | 0.00 | 0.00 | 0.00 | 71 | 1063.6 |
| 20260509042651 | 17 | 57 | 4.8 | 4.8 | 0.00 | 0.00 | 0.00 | 71 | 1063.9 |
| 20260509042147 | 17 | 63 | 1.6 | 3.2 | 0.00 | 0.00 | 0.00 | 73 | 1063.6 |
| 20260509041644 | 17 | 172 | 0.0 | 0.0 | 0.00 | 0.00 | 0.00 | 73 | 1063.5 |
| 20260509041141 | 17 | 158 | 0.0 | 0.0 | 0.00 | 0.00 | 0.00 | 72 | 1063.3 |
| 20260509040640 | 17 | 47 | 4.8 | 4.8 | 0.00 | 0.00 | 0.00 | 72 | 1063.5 |
| 20260509040136 | 17 | 38 | 4.8 | 4.8 | 0.00 | 0.00 | 0.00 | 72 | 1063.4 |
| 20260509035633 | 17 | 69 | 3.2 | 3.2 | 0.00 | 0.00 | 0.00 | 72 | 1063.2 |
| 20260509035130 | 17 | 176 | 3.2 | 3.2 | 0.00 | 0.00 | 0.00 | 72 | 1063.1 |
| 20260509034628 | 17 | 186 | 0.0 | 1.6 | 0.00 | 0.00 | 0.00 | 72 | 1063.2 |
| 20260509034124 | 17 | 172 | 3.2 | 3.2 | 0.00 | 0.00 | 0.00 | 71 | 1063.0 |
| 20260509033621 | 17 | 174 | 3.2 | 3.2 | 0.00 | 0.00 | 0.00 | 71 | 1063.1 |
| 20260509033118 | 17 | 170 | 3.2 | 4.8 | 0.00 | 0.00 | 0.00 | 72 | 1063.3 |
| 20260509032616 | 18 | 173 | 4.8 | 3.2 | 0.00 | 0.00 | 0.00 | 71 | 1063.7 |
| 20260509032112 | 18 | 172 | 4.8 | 4.8 | 0.00 | 0.00 | 0.00 | 70 | 1063.3 |
| 20260509031610 | 18 | 176 | 1.6 | 1.6 | 0.00 | 0.00 | 0.00 | 69 | 1063.2 |
| 20260509031108 | 18 | 172 | 3.2 | 4.8 | 0.00 | 0.00 | 0.00 | 69 | 1063.0 |
| 20260509030605 | 18 | 170 | 4.8 | 4.8 | 0.00 | 0.00 | 0.00 | 69 | 1062.9 |
| 20260509025558 | 18 | 177 | 1.6 | 1.6 | 0.00 | 0.00 | 0.00 | 68 | 1062.9 |
| 20260509025054 | 18 | 171 | 3.2 | 3.2 | 0.00 | 0.00 | 0.00 | 68 | 1062.8 |
| 20260509024550 | 18 | 178 | 3.2 | 3.2 | 0.00 | 0.00 | 0.00 | 68 | 1062.6 |
| 20260509024046 | 18 | 173 | 3.2 | 3.2 | 0.00 | 0.00 | 0.00 | 68 | 1062.6 |
| 20260509023544 | 18 | 179 | 3.2 | 3.2 | 0.00 | 0.00 | 0.00 | 69 | 1062.5 |
| 20260509023040 | 17 | 183 | 0.0 | 0.0 | 0.00 | 0.00 | 0.00 | 69 | 1062.4 |
| 20260509022537 | 17 | 178 | 1.6 | 1.6 | 0.00 | 0.00 | 0.00 | 70 | 1062.2 |
| 20260509022035 | 17 | 175 | 3.2 | 3.2 | 0.00 | 0.00 | 0.00 | 70 | 1062.0 |
| 20260509021532 | 17 | 180 | 3.2 | 3.2 | 0.00 | 0.00 | 0.00 | 70 | 1061.6 |
| 20260509021029 | 17 | 171 | 4.8 | 4.8 | 0.00 | 0.00 | 0.00 | 71 | 1061.5 |
| 20260509020527 | 17 | 178 | 4.8 | 4.8 | 0.00 | 0.00 | 0.00 | 71 | 1061.2 |
| 20260509020023 | 17 | 169 | 4.8 | 4.8 | 0.00 | 0.00 | 0.00 | 72 | 1061.0 |
| 20260509015523 | 17 | 172 | 4.8 | 4.8 | 0.00 | 0.00 | 0.00 | 72 | 1061.0 |
| 20260509015019 | 17 | 174 | 4.8 | 4.8 | 0.00 | 0.00 | 0.00 | 73 | 1060.9 |
| 20260509014516 | 17 | 180 | 4.8 | 4.8 | 0.00 | 0.00 | 0.00 | 73 | 1060.9 |
| 20260509014013 | 17 | 176 | 4.8 | 4.8 | 0.00 | 0.00 | 0.00 | 73 | 1060.8 |
| 20260509013510 | 17 | 172 | 6.4 | 4.8 | 0.00 | 0.00 | 0.00 | 73 | 1060.7 |
| 20260509013005 | 17 | 170 | 6.4 | 4.8 | 0.00 | 0.00 | 0.00 | 73 | 1060.6 |
| 20260509012502 | 17 | 171 | 4.8 | 4.8 | 0.00 | 0.00 | 0.00 | 73 | 1060.5 |
| 20260509011958 | 17 | 173 | 4.8 | 6.4 | 0.00 | 0.00 | 0.00 | 72 | 1060.5 |
| 20260509011456 | 17 | 183 | 4.8 | 4.8 | 0.00 | 0.00 | 0.00 | 72 | 1060.6 |
| 20260509010954 | 17 | 177 | 4.8 | 4.8 | 0.00 | 0.00 | 0.00 | 72 | 1060.5 |
| 20260509010451 | 17 | 179 | 4.8 | 4.8 | 0.00 | 0.00 | 0.00 | 72 | 1060.4 |
| 20260509005948 | 18 | 165 | 3.2 | 3.2 | 0.00 | 0.00 | 0.00 | 71 | 1060.6 |
| 20260509005446 | 18 | 176 | 4.8 | 4.8 | 0.00 | 0.00 | 0.00 | 70 | 1060.3 |
| 20260509004946 | 18 | 184 | 6.4 | 6.4 | 0.00 | 0.00 | 0.00 | 69 | 1060.1 |
| 20260509004443 | 18 | 170 | 6.4 | 6.4 | 0.00 | 0.00 | 0.00 | 67 | 1060.3 |
| 20260509003941 | 18 | 172 | 4.8 | 4.8 | 0.00 | 0.00 | 0.00 | 67 | 1060.4 |
| 20260509003438 | 19 | 176 | 4.8 | 4.8 | 0.00 | 0.00 | 0.00 | 68 | 1060.4 |
| 20260509002935 | 19 | 180 | 6.4 | 6.4 | 0.00 | 0.00 | 0.00 | 68 | 1060.2 |
| 20260509002433 | 19 | 167 | 4.8 | 4.8 | 0.00 | 0.00 | 0.00 | 67 | 1060.3 |
| 20260509001930 | 19 | 170 | 6.4 | 9.7 | 0.00 | 0.00 | 0.00 | 68 | 1060.3 |
| 20260509001426 | 20 | 173 | 8.0 | 9.7 | 0.00 | 0.00 | 0.00 | 68 | 1060.5 |
| 20260509000923 | 20 | 191 | 6.4 | 6.4 | 0.00 | 0.00 | 0.00 | 67 | 1060.5 |